createdAt,value
2022-08-02T00:01:23.453Z,2.40
2022-08-02T00:03:52.040Z,2.70
2022-08-02T00:06:21.222Z,2.50
2022-08-02T00:08:49.510Z,2.60
2022-08-02T00:11:17.866Z,2.30
2022-08-02T00:13:46.349Z,2.60
2022-08-02T00:16:16.835Z,2.70
2022-08-02T00:18:45.823Z,2.80
2022-08-02T00:21:14.282Z,2.80
2022-08-02T00:24:03.219Z,2.30
2022-08-02T00:26:31.417Z,2.50
2022-08-02T00:28:59.507Z,2.50
2022-08-02T00:31:27.846Z,2.50
2022-08-02T00:34:27.546Z,2.50
2022-08-02T00:36:44.406Z,2.70
2022-08-02T00:39:34.177Z,2.40
2022-08-02T00:42:01.122Z,2.60
2022-08-02T00:44:29.209Z,2.50
2022-08-02T00:46:57.342Z,2.80
2022-08-02T00:49:25.729Z,2.60
2022-08-02T00:51:54.139Z,2.50
2022-08-02T00:54:23.617Z,2.30
2022-08-02T00:56:51.889Z,2.70
2022-08-02T00:59:20.279Z,2.60
2022-08-02T01:01:56.991Z,2.60
2022-08-02T01:04:31.011Z,2.30
2022-08-02T01:07:01.305Z,2.50
2022-08-02T01:09:29.458Z,2.40
2022-08-02T01:11:57.957Z,2.80
2022-08-02T01:14:31.347Z,2.90
2022-08-02T01:17:36.796Z,2.50
2022-08-02T01:20:09.171Z,2.20
2022-08-02T01:23:08.272Z,1.90
2022-08-02T01:25:55.416Z,2.30
2022-08-02T01:28:41.995Z,2.50
2022-08-02T01:31:19.423Z,2.60
2022-08-02T01:34:13.482Z,2.30
2022-08-02T01:36:48.571Z,2.50
2022-08-02T01:39:26.700Z,2.50
2022-08-02T01:44:35.273Z,2.50
2022-08-02T01:47:09.735Z,2.60
2022-08-02T01:49:40.291Z,2.30
2022-08-02T01:52:23.143Z,2.50
2022-08-02T01:55:18.412Z,2.30
2022-08-02T01:57:54.382Z,2.50
2022-08-02T02:00:24.522Z,2.80
2022-08-02T02:02:56.208Z,2.50
2022-08-02T02:05:28.903Z,2.30
2022-08-02T02:07:58.854Z,2.50
2022-08-02T02:10:30.446Z,2.60
2022-08-02T02:13:12.953Z,2.40
2022-08-02T02:15:46.598Z,2.40
2022-08-02T02:18:23.456Z,2.20
2022-08-02T02:20:52.517Z,2.10
2022-08-02T02:23:24.429Z,2.50
2022-08-02T02:25:55.677Z,2.10
2022-08-02T02:28:30.442Z,2.90
2022-08-02T02:31:19.861Z,8.20
2022-08-02T02:34:01.768Z,20.70
2022-08-02T02:36:31.352Z,31.10
2022-08-02T02:39:04.337Z,28.90
2022-08-02T02:41:43.865Z,31.00
2022-08-02T02:44:17.603Z,13.50
2022-08-02T02:46:50.287Z,8.30
2022-08-02T02:49:20.484Z,12.20
2022-08-02T02:51:49.657Z,14.00
2022-08-02T02:54:32.479Z,5.40
2022-08-02T02:57:05.889Z,3.40
2022-08-02T02:59:43.037Z,3.50
2022-08-02T03:04:56.684Z,3.30
2022-08-02T03:07:27.402Z,3.70
2022-08-02T03:09:56.108Z,3.40
2022-08-02T03:12:30.618Z,3.20
2022-08-02T03:15:02.247Z,3.20
2022-08-02T03:17:45.358Z,2.40
2022-08-02T03:20:16.123Z,2.60
2022-08-02T03:22:45.742Z,2.60
2022-08-02T03:25:15.913Z,2.40
2022-08-02T03:27:44.020Z,2.50
2022-08-02T03:30:13.661Z,3.00
2022-08-02T03:32:45.134Z,3.40
2022-08-02T03:35:21.329Z,2.80
2022-08-02T03:37:54.801Z,2.40
2022-08-02T03:40:24.368Z,2.70
2022-08-02T03:42:53.868Z,2.70
2022-08-02T03:45:23.272Z,3.00
2022-08-02T03:47:52.694Z,2.70
2022-08-02T03:50:23.137Z,2.60
2022-08-02T03:52:53.028Z,3.20
2022-08-02T03:55:21.111Z,2.90
2022-08-02T03:57:49.380Z,3.20
2022-08-02T04:00:22.976Z,3.30
2022-08-02T04:02:51.383Z,3.50
2022-08-02T04:05:20.461Z,3.40
2022-08-02T04:08:02.724Z,3.00
2022-08-02T04:10:56.972Z,2.70
2022-08-02T04:13:31.816Z,2.70
2022-08-02T04:16:12.778Z,2.60
2022-08-02T04:18:46.671Z,2.50
2022-08-02T04:23:47.824Z,2.50
2022-08-02T04:26:19.589Z,2.60
2022-08-02T04:28:57.156Z,2.30
2022-08-02T04:31:26.904Z,2.70
2022-08-02T04:33:56.017Z,2.60
2022-08-02T04:36:30.776Z,2.80
2022-08-02T04:39:00.240Z,2.70
2022-08-02T04:42:08.587Z,2.90
2022-08-02T04:44:37.046Z,2.90
2022-08-02T04:47:06.897Z,2.90
2022-08-02T04:49:35.519Z,3.30
2022-08-02T04:52:04.641Z,3.20
2022-08-02T04:54:32.971Z,2.90
2022-08-02T04:57:01.209Z,3.50
2022-08-02T04:59:29.672Z,2.80
2022-08-02T05:01:58.095Z,2.80
2022-08-02T05:04:26.334Z,3.30
2022-08-02T05:06:54.616Z,3.00
2022-08-02T05:09:22.815Z,3.40
2022-08-02T05:11:53.310Z,2.90
2022-08-02T05:14:23.847Z,3.40
2022-08-02T05:16:52.123Z,3.40
2022-08-02T05:19:20.255Z,3.30
2022-08-02T05:21:48.682Z,2.90
2022-08-02T05:24:16.962Z,3.30
2022-08-02T05:26:45.245Z,3.00
2022-08-02T05:29:13.317Z,2.90
2022-08-02T05:31:41.601Z,3.10
2022-08-02T05:34:12.006Z,3.30
2022-08-02T05:36:42.108Z,3.20
2022-08-02T05:39:10.838Z,3.50
2022-08-02T05:41:40.554Z,3.40
2022-08-02T05:44:08.627Z,3.40
2022-08-02T05:46:38.361Z,3.20
2022-08-02T05:49:06.929Z,3.40
2022-08-02T05:51:43.183Z,3.20
2022-08-02T05:54:11.488Z,3.30
2022-08-02T05:59:48.089Z,3.50
2022-08-02T06:02:50.364Z,3.30
2022-08-02T06:05:20.068Z,3.60
2022-08-02T06:07:49.479Z,3.40
2022-08-02T06:10:21.039Z,3.30
2022-08-02T06:13:09.268Z,3.50
2022-08-02T06:15:42.601Z,3.20
2022-08-02T06:18:27.963Z,3.30
2022-08-02T06:22:29.891Z,2.90
2022-08-02T06:23:57.439Z,3.10
2022-08-02T06:26:27.978Z,2.80
2022-08-02T06:28:57.150Z,3.00
2022-08-02T06:31:25.551Z,3.10
2022-08-02T06:33:52.579Z,3.00
2022-08-02T06:36:38.948Z,3.00
2022-08-02T06:39:40.039Z,3.00
2022-08-02T06:42:26.957Z,3.00
2022-08-02T06:44:57.770Z,3.20
2022-08-02T06:47:26.076Z,4.70
2022-08-02T06:49:54.649Z,3.40
2022-08-02T06:52:28.173Z,2.60
2022-08-02T06:55:00.695Z,2.40
2022-08-02T06:57:28.990Z,2.80
2022-08-02T06:59:57.877Z,2.90
2022-08-02T07:02:25.019Z,2.70
2022-08-02T07:04:51.740Z,2.90
2022-08-02T07:07:18.793Z,2.90
2022-08-02T07:10:00.724Z,2.80
2022-08-02T07:12:33.528Z,2.70
2022-08-02T07:15:04.878Z,2.90
2022-08-02T07:17:51.963Z,2.50
2022-08-02T07:20:24.435Z,2.70
2022-08-02T07:22:51.499Z,2.90
2022-08-02T07:25:18.231Z,2.60
2022-08-02T07:27:45.584Z,2.50
2022-08-02T07:30:12.654Z,2.40
2022-08-02T07:32:45.085Z,2.20
2022-08-02T07:35:19.124Z,2.40
2022-08-02T07:38:13.559Z,2.20
2022-08-02T07:40:41.380Z,2.60
2022-08-02T07:43:08.119Z,2.40
2022-08-02T07:45:35.663Z,1.90
2022-08-02T07:48:03.780Z,1.90
2022-08-02T07:50:30.745Z,2.00
2022-08-02T07:52:58.009Z,2.00
2022-08-02T07:55:39.405Z,1.80
2022-08-02T07:58:12.663Z,2.10
2022-08-02T08:00:44.538Z,2.40
2022-08-02T08:03:11.897Z,2.50
2022-08-02T08:05:39.264Z,2.00
2022-08-02T08:08:06.415Z,2.10
2022-08-02T08:10:33.730Z,2.40
2022-08-02T08:13:00.675Z,2.60
2022-08-02T08:15:27.421Z,2.30
2022-08-02T08:17:54.465Z,2.50
2022-08-02T08:20:21.521Z,2.60
2022-08-02T08:22:49.797Z,2.70
2022-08-02T08:25:16.574Z,2.10
2022-08-02T08:27:51.626Z,2.50
2022-08-02T08:30:20.190Z,2.20
2022-08-02T08:32:47.010Z,2.50
2022-08-02T08:35:14.389Z,2.20
2022-08-02T08:37:41.275Z,2.30
2022-08-02T08:40:11.051Z,2.70
2022-08-02T08:42:39.193Z,2.20
2022-08-02T08:45:08.373Z,2.20
2022-08-02T08:47:38.327Z,2.20
2022-08-02T08:50:24.562Z,2.10
2022-08-02T08:53:03.365Z,2.30
2022-08-02T08:55:31.639Z,2.30
2022-08-02T08:58:00.850Z,2.30
2022-08-02T09:00:30.367Z,2.00
2022-08-02T09:02:58.616Z,2.10
2022-08-02T09:05:26.065Z,1.90
2022-08-02T09:07:53.230Z,2.40
2022-08-02T09:10:41.762Z,2.40
2022-08-02T09:13:44.452Z,2.50
2022-08-02T09:16:11.105Z,2.40
2022-08-02T09:18:45.897Z,2.70
2022-08-02T09:21:15.527Z,2.40
2022-08-02T09:23:45.587Z,2.40
2022-08-02T09:26:15.800Z,4.00
2022-08-02T09:28:45.886Z,2.10
2022-08-02T09:31:20.338Z,2.10
2022-08-02T09:33:58.454Z,2.00
2022-08-02T09:36:27.766Z,2.10
2022-08-02T09:38:56.394Z,2.50
2022-08-02T09:41:29.607Z,3.30
2022-08-02T09:44:05.433Z,2.20
2022-08-02T09:46:41.025Z,1.90
2022-08-02T09:49:13.553Z,2.00
2022-08-02T09:51:51.457Z,2.10
2022-08-02T09:54:24.062Z,2.10
2022-08-02T09:56:59.453Z,2.10
2022-08-02T09:59:27.947Z,2.00
2022-08-02T10:02:01.812Z,1.80
2022-08-02T10:04:34.230Z,1.80
2022-08-02T10:07:06.568Z,2.10
2022-08-02T10:09:34.333Z,2.00
2022-08-02T10:12:01.572Z,2.10
2022-08-02T10:14:29.755Z,1.80
2022-08-02T10:16:58.248Z,2.40
2022-08-02T10:20:00.646Z,2.40
2022-08-02T10:22:15.534Z,2.00
2022-08-02T10:24:47.435Z,1.70
2022-08-02T10:27:21.189Z,2.50
2022-08-02T10:29:55.231Z,2.00
2022-08-02T10:32:28.592Z,2.00
2022-08-02T10:35:18.139Z,1.70
2022-08-02T10:37:56.161Z,1.70
2022-08-02T10:40:23.482Z,1.80
2022-08-02T10:42:52.924Z,2.00
2022-08-02T10:45:22.505Z,1.80
2022-08-02T10:48:11.288Z,2.10
2022-08-02T10:50:52.348Z,1.90
2022-08-02T10:53:33.106Z,1.60
2022-08-02T10:56:05.493Z,1.90
2022-08-02T10:58:36.443Z,1.70
2022-08-02T11:01:26.310Z,2.10
2022-08-02T11:04:07.048Z,1.80
2022-08-02T11:07:08.247Z,1.70
2022-08-02T11:09:36.320Z,1.80
2022-08-02T11:12:06.544Z,1.60
2022-08-02T11:14:39.844Z,1.80
2022-08-02T11:17:17.536Z,2.00
2022-08-02T11:20:12.576Z,2.20
2022-08-02T11:22:40.683Z,2.00
2022-08-02T11:25:23.248Z,1.60
2022-08-02T11:27:56.990Z,1.70
2022-08-02T11:30:26.778Z,1.90
2022-08-02T11:32:59.071Z,2.10
2022-08-02T11:35:32.939Z,1.90
2022-08-02T11:38:16.305Z,2.30
2022-08-02T11:40:44.672Z,2.00
2022-08-02T11:43:19.347Z,1.80
2022-08-02T11:45:47.238Z,1.90
2022-08-02T11:48:13.942Z,2.00
2022-08-02T11:50:40.891Z,2.20
2022-08-02T11:53:17.201Z,2.10
2022-08-02T11:55:44.147Z,2.20
2022-08-02T11:58:11.077Z,1.70
2022-08-02T12:00:38.760Z,1.80
2022-08-02T12:03:07.329Z,1.90
2022-08-02T12:06:04.712Z,1.80
2022-08-02T12:08:25.064Z,1.70
2022-08-02T12:10:52.471Z,1.80
2022-08-02T12:13:19.328Z,1.60
2022-08-02T12:15:47.388Z,1.50
2022-08-02T12:18:38.389Z,1.70
2022-08-02T12:21:22.945Z,1.70
2022-08-02T12:24:00.066Z,1.50
2022-08-02T12:26:29.440Z,1.60
2022-08-02T12:29:02.502Z,1.90
2022-08-02T12:31:56.898Z,1.90
2022-08-02T12:34:30.060Z,1.90
2022-08-02T12:39:40.899Z,1.90
2022-08-02T12:42:12.079Z,1.70
2022-08-02T12:44:54.004Z,2.10
2022-08-02T12:47:21.854Z,1.90
2022-08-02T12:50:17.334Z,2.10
2022-08-02T12:52:46.969Z,1.70
2022-08-02T12:55:19.109Z,1.80
2022-08-02T12:57:59.370Z,1.80
2022-08-02T13:00:37.581Z,1.90
2022-08-02T13:03:11.217Z,1.80
2022-08-02T13:05:56.944Z,2.10
2022-08-02T13:08:24.943Z,1.90
2022-08-02T13:10:51.672Z,2.20
2022-08-02T13:13:18.364Z,1.90
2022-08-02T13:15:49.409Z,1.90
2022-08-02T13:18:17.809Z,1.70
2022-08-02T13:20:45.562Z,2.10
2022-08-02T13:23:21.095Z,2.00
2022-08-02T13:25:52.891Z,2.30
2022-08-02T13:28:20.660Z,1.90
2022-08-02T13:30:48.358Z,1.90
2022-08-02T13:33:16.042Z,2.00
2022-08-02T13:35:44.331Z,1.80
2022-08-02T13:38:11.480Z,1.70
2022-08-02T13:41:04.434Z,1.70
2022-08-02T13:43:54.130Z,1.90
2022-08-02T13:46:28.987Z,2.00
2022-08-02T13:48:56.663Z,1.90
2022-08-02T13:51:24.346Z,2.30
2022-08-02T13:53:51.194Z,2.20
2022-08-02T13:56:18.013Z,2.00
2022-08-02T13:58:44.881Z,2.10
2022-08-02T14:01:11.595Z,2.10
2022-08-02T14:04:07.726Z,2.10
2022-08-02T14:06:25.999Z,1.90
2022-08-02T14:08:52.945Z,1.90
2022-08-02T14:11:19.817Z,2.00
2022-08-02T14:13:46.738Z,2.00
2022-08-02T14:16:13.697Z,2.10
2022-08-02T14:18:40.482Z,2.00
2022-08-02T14:21:07.403Z,2.00
2022-08-02T14:23:49.297Z,1.90
2022-08-02T14:26:27.706Z,1.60
2022-08-02T14:28:55.465Z,1.60
2022-08-02T14:31:22.639Z,1.80
2022-08-02T14:33:49.322Z,1.80
2022-08-02T14:36:16.237Z,1.80
2022-08-02T14:38:55.737Z,1.80
2022-08-02T14:41:23.296Z,1.60
2022-08-02T14:44:05.619Z,2.10
2022-08-02T14:46:37.670Z,1.80
2022-08-02T14:49:04.901Z,2.00
2022-08-02T14:51:33.438Z,1.60
2022-08-02T14:54:02.710Z,1.50
2022-08-02T14:56:30.892Z,1.80
2022-08-02T14:58:57.833Z,1.60
2022-08-02T15:01:26.078Z,1.90
2022-08-02T15:03:53.592Z,1.70
2022-08-02T15:06:20.960Z,1.50
2022-08-02T15:08:48.182Z,1.80
2022-08-02T15:11:15.128Z,1.80
2022-08-02T15:13:42.675Z,1.80
2022-08-02T15:16:10.053Z,1.70
2022-08-02T15:18:36.820Z,1.60
2022-08-02T15:21:40.343Z,2.10
2022-08-02T15:23:50.755Z,1.70
2022-08-02T15:26:20.568Z,1.90
2022-08-02T15:28:48.013Z,1.90
2022-08-02T15:31:33.149Z,1.50
2022-08-02T15:34:00.743Z,1.80
2022-08-02T15:36:29.551Z,1.60
2022-08-02T15:38:57.319Z,1.80
2022-08-02T15:41:24.641Z,1.80
2022-08-02T15:44:00.724Z,1.80
2022-08-02T15:46:31.104Z,1.60
2022-08-02T15:48:59.770Z,1.70
2022-08-02T15:51:26.763Z,1.90
2022-08-02T15:53:53.651Z,1.60
2022-08-02T15:56:22.045Z,1.90
2022-08-02T15:58:56.976Z,1.80
2022-08-02T16:01:26.213Z,1.80
2022-08-02T16:04:05.293Z,2.10
2022-08-02T16:06:32.083Z,1.70
2022-08-02T16:08:58.981Z,1.90
2022-08-02T16:11:25.954Z,2.00
2022-08-02T16:13:54.200Z,1.80
2022-08-02T16:16:23.750Z,1.90
2022-08-02T16:18:51.032Z,2.20
2022-08-02T16:21:18.890Z,2.10
2022-08-02T16:23:58.705Z,1.80
2022-08-02T16:26:31.356Z,1.90
2022-08-02T16:28:59.852Z,2.10
2022-08-02T16:31:26.764Z,2.00
2022-08-02T16:33:56.382Z,1.80
2022-08-02T16:36:25.221Z,2.20
2022-08-02T16:38:53.911Z,2.20
2022-08-02T16:41:21.550Z,2.90
2022-08-02T16:43:48.277Z,2.70
2022-08-02T16:46:15.665Z,2.30
2022-08-02T16:48:50.944Z,2.40
2022-08-02T16:51:18.942Z,2.20
2022-08-02T16:53:59.130Z,2.10
2022-08-02T16:56:28.578Z,1.90
2022-08-02T16:58:59.648Z,2.10
2022-08-02T17:02:01.855Z,1.70
2022-08-02T17:04:15.600Z,2.20
2022-08-02T17:06:47.605Z,2.00
2022-08-02T17:10:02.317Z,2.30
2022-08-02T17:12:09.967Z,2.20
2022-08-02T17:14:54.525Z,2.10
2022-08-02T17:17:34.169Z,2.60
2022-08-02T17:20:02.915Z,2.30
2022-08-02T17:22:29.876Z,2.40
2022-08-02T17:24:56.682Z,2.20
2022-08-02T17:27:26.688Z,2.30
2022-08-02T17:29:54.688Z,2.30
2022-08-02T17:32:21.966Z,2.20
2022-08-02T17:34:59.885Z,2.60
2022-08-02T17:37:28.552Z,2.50
2022-08-02T17:39:56.960Z,2.50
2022-08-02T17:42:25.005Z,2.00
2022-08-02T17:44:53.473Z,2.50
2022-08-02T17:47:21.808Z,2.30
2022-08-02T17:49:49.887Z,2.60
2022-08-02T17:52:51.432Z,2.50
2022-08-02T17:55:10.444Z,2.40
2022-08-02T17:57:57.021Z,2.50
2022-08-02T18:00:31.163Z,2.50
2022-08-02T18:02:58.009Z,2.90
2022-08-02T18:05:39.443Z,3.90
2022-08-02T18:08:14.020Z,4.10
2022-08-02T18:10:41.275Z,4.40
2022-08-02T18:13:08.067Z,4.80
2022-08-02T18:15:36.197Z,4.80
2022-08-02T18:18:03.105Z,4.90
2022-08-02T18:20:29.986Z,4.30
2022-08-02T18:22:58.438Z,4.70
2022-08-02T18:25:37.451Z,4.10
2022-08-02T18:28:13.969Z,4.60
2022-08-02T18:30:40.923Z,5.20
2022-08-02T18:33:58.233Z,4.90
2022-08-02T18:38:42.923Z,4.90
2022-08-02T18:41:12.963Z,5.50
2022-08-02T18:43:43.694Z,5.00
2022-08-02T18:46:16.205Z,5.90
2022-08-02T18:48:46.941Z,6.70
2022-08-02T18:51:16.519Z,6.20
2022-08-02T18:53:50.343Z,5.70
2022-08-02T18:56:24.739Z,5.50
2022-08-02T19:01:34.380Z,4.60
2022-08-02T19:04:04.387Z,5.90
2022-08-02T19:06:31.570Z,5.20
2022-08-02T19:09:12.783Z,5.40
2022-08-02T19:11:48.143Z,4.80
2022-08-02T19:14:24.263Z,4.70
2022-08-02T19:16:56.237Z,5.80
2022-08-02T19:19:29.035Z,5.80
2022-08-02T19:22:18.980Z,5.20
2022-08-02T19:24:45.750Z,5.50
2022-08-02T19:27:20.631Z,5.10
2022-08-02T19:29:53.738Z,5.80
2022-08-02T19:32:40.356Z,5.30
2022-08-02T19:35:19.230Z,5.60
2022-08-02T19:38:04.822Z,6.20
2022-08-02T19:40:31.758Z,7.20
2022-08-02T19:44:20.847Z,6.50
2022-08-02T19:45:51.255Z,6.10
2022-08-02T19:48:23.984Z,6.50
2022-08-02T19:50:56.803Z,5.90
2022-08-02T19:53:29.071Z,6.60
2022-08-02T19:56:21.075Z,6.70
2022-08-02T19:58:51.306Z,6.20
2022-08-02T20:01:23.474Z,6.00
2022-08-02T20:03:54.456Z,6.70
2022-08-02T20:06:26.455Z,6.10
2022-08-02T20:09:01.298Z,6.30
2022-08-02T20:11:34.811Z,6.20
2022-08-02T20:14:06.272Z,5.90
2022-08-02T20:16:34.966Z,5.40
2022-08-02T20:19:04.195Z,5.20
2022-08-02T20:21:36.335Z,5.70
2022-08-02T20:24:11.158Z,6.00
2022-08-02T20:26:47.971Z,6.10
2022-08-02T20:29:42.376Z,6.60
2022-08-02T20:32:04.371Z,6.60
2022-08-02T20:34:31.620Z,5.40
2022-08-02T20:37:56.056Z,6.50
2022-08-02T20:39:47.946Z,5.90
2022-08-02T20:42:23.166Z,5.60
2022-08-02T20:44:53.520Z,6.30
2022-08-02T20:47:20.198Z,6.30
2022-08-02T20:50:15.272Z,5.80
2022-08-02T20:52:43.970Z,6.70
2022-08-02T20:55:17.098Z,7.10
2022-08-02T20:57:48.778Z,6.30
2022-08-02T21:00:27.318Z,6.50
2022-08-02T21:02:54.262Z,6.50
2022-08-02T21:05:20.988Z,6.40
2022-08-02T21:08:13.718Z,6.30
2022-08-02T21:10:43.800Z,6.10
2022-08-02T21:13:23.647Z,5.90
2022-08-02T21:15:51.636Z,6.20
2022-08-02T21:18:21.215Z,5.80
2022-08-02T21:20:55.755Z,6.30
2022-08-02T21:23:23.803Z,6.30
2022-08-02T21:25:57.361Z,5.90
2022-08-02T21:28:43.531Z,5.70
2022-08-02T21:31:14.014Z,5.70
2022-08-02T21:33:57.919Z,5.30
2022-08-02T21:36:32.627Z,6.00
2022-08-02T21:39:05.130Z,5.90
2022-08-02T21:41:38.899Z,6.00
2022-08-02T21:44:15.956Z,5.50
2022-08-02T21:46:49.557Z,5.80
2022-08-02T21:49:18.728Z,6.10
2022-08-02T21:51:49.633Z,6.40
2022-08-02T21:54:21.377Z,5.70
2022-08-02T21:56:51.913Z,5.40
2022-08-02T21:59:25.719Z,5.60
2022-08-02T22:01:56.892Z,5.60
2022-08-02T22:04:27.399Z,6.70
2022-08-02T22:06:55.366Z,5.80
2022-08-02T22:09:42.482Z,6.00
2022-08-02T22:12:12.724Z,6.40
2022-08-02T22:14:54.987Z,6.70
2022-08-02T22:20:18.378Z,6.30
2022-08-02T22:22:50.765Z,6.50
2022-08-02T22:25:26.584Z,6.90
2022-08-02T22:28:35.101Z,7.00
2022-08-02T22:31:04.147Z,6.80
2022-08-02T22:34:01.322Z,6.90
2022-08-02T22:36:43.281Z,7.20
2022-08-02T22:39:19.291Z,6.80
2022-08-02T22:42:05.812Z,6.10
2022-08-02T22:44:34.873Z,6.50
2022-08-02T22:47:07.247Z,7.00
2022-08-02T22:49:52.890Z,7.30
2022-08-02T22:52:22.038Z,7.20
2022-08-02T22:54:49.438Z,6.80
2022-08-02T22:57:30.032Z,6.90
2022-08-02T22:58:57.317Z,4.70
2022-08-02T22:59:59.789Z,7.20
2022-08-02T23:02:27.838Z,6.80
2022-08-02T23:04:54.721Z,7.00
2022-08-02T23:07:21.626Z,7.20
2022-08-02T23:09:48.394Z,6.60
2022-08-02T23:12:18.813Z,6.20
2022-08-02T23:14:46.474Z,5.90
2022-08-02T23:17:31.797Z,6.50
2022-08-02T23:19:58.500Z,7.30
2022-08-02T23:22:29.893Z,6.90
2022-08-02T23:27:27.856Z,7.30
2022-08-02T23:29:54.650Z,7.30
2022-08-02T23:32:22.894Z,7.10
2022-08-02T23:34:57.223Z,6.60
2022-08-02T23:37:24.519Z,7.10
2022-08-02T23:39:51.598Z,6.90
2022-08-02T23:42:18.644Z,6.50
2022-08-02T23:44:45.972Z,6.80
2022-08-02T23:47:12.700Z,7.00
2022-08-02T23:49:39.630Z,7.30
2022-08-02T23:52:06.619Z,7.00
2022-08-02T23:54:33.558Z,7.00
2022-08-02T23:57:00.423Z,6.60
2022-08-02T23:59:47.690Z,6.60
